sensor_id;sensor_type;location;lat;lon;timestamp;P1;durP1;ratioP1;P2;durP2;ratioP2
12770;SDS011;6449;47.666;9.160;2023-02-01T00:00:15;7.50;;;5.37;;
12770;SDS011;6449;47.666;9.160;2023-02-01T00:05:10;6.97;;;4.73;;
12770;SDS011;6449;47.666;9.160;2023-02-01T00:10:05;8.30;;;5.17;;
12770;SDS011;6449;47.666;9.160;2023-02-01T00:15:00;6.63;;;5.00;;
12770;SDS011;6449;47.666;9.160;2023-02-01T00:19:54;6.33;;;4.70;;
12770;SDS011;6449;47.666;9.160;2023-02-01T00:24:47;8.77;;;5.00;;
12770;SDS011;6449;47.666;9.160;2023-02-01T00:29:42;6.80;;;4.60;;
12770;SDS011;6449;47.666;9.160;2023-02-01T00:34:36;6.43;;;4.30;;
12770;SDS011;6449;47.666;9.160;2023-02-01T00:39:30;5.83;;;4.27;;
12770;SDS011;6449;47.666;9.160;2023-02-01T00:44:23;5.93;;;4.63;;
12770;SDS011;6449;47.666;9.160;2023-02-01T00:49:19;7.03;;;4.93;;
12770;SDS011;6449;47.666;9.160;2023-02-01T00:54:13;6.47;;;4.43;;
12770;SDS011;6449;47.666;9.160;2023-02-01T00:59:07;7.27;;;4.73;;
12770;SDS011;6449;47.666;9.160;2023-02-01T01:04:03;6.60;;;5.00;;
12770;SDS011;6449;47.666;9.160;2023-02-01T01:08:59;5.77;;;4.80;;
12770;SDS011;6449;47.666;9.160;2023-02-01T01:13:55;5.67;;;4.50;;
12770;SDS011;6449;47.666;9.160;2023-02-01T01:18:50;6.13;;;4.73;;
12770;SDS011;6449;47.666;9.160;2023-02-01T01:23:45;7.87;;;4.67;;
12770;SDS011;6449;47.666;9.160;2023-02-01T01:28:41;6.90;;;5.43;;
12770;SDS011;6449;47.666;9.160;2023-02-01T01:33:35;7.43;;;4.90;;
12770;SDS011;6449;47.666;9.160;2023-02-01T01:38:30;6.80;;;4.67;;
12770;SDS011;6449;47.666;9.160;2023-02-01T01:43:24;8.50;;;5.07;;
12770;SDS011;6449;47.666;9.160;2023-02-01T01:48:19;6.93;;;4.70;;
12770;SDS011;6449;47.666;9.160;2023-02-01T01:53:23;6.27;;;4.73;;
12770;SDS011;6449;47.666;9.160;2023-02-01T01:58:22;7.67;;;4.90;;
12770;SDS011;6449;47.666;9.160;2023-02-01T02:03:22;8.03;;;5.20;;
12770;SDS011;6449;47.666;9.160;2023-02-01T02:08:25;6.67;;;5.13;;
12770;SDS011;6449;47.666;9.160;2023-02-01T02:13:20;6.40;;;5.20;;
12770;SDS011;6449;47.666;9.160;2023-02-01T02:18:15;7.17;;;5.57;;
12770;SDS011;6449;47.666;9.160;2023-02-01T02:23:25;7.63;;;5.37;;
12770;SDS011;6449;47.666;9.160;2023-02-01T02:34:40;7.80;;;5.40;;
12770;SDS011;6449;47.666;9.160;2023-02-01T02:39:44;8.07;;;5.50;;
12770;SDS011;6449;47.666;9.160;2023-02-01T02:44:46;9.40;;;5.73;;
12770;SDS011;6449;47.666;9.160;2023-02-01T02:50:11;8.70;;;6.20;;
12770;SDS011;6449;47.666;9.160;2023-02-01T02:55:30;9.70;;;6.20;;
12770;SDS011;6449;47.666;9.160;2023-02-01T03:00:28;9.83;;;6.07;;
12770;SDS011;6449;47.666;9.160;2023-02-01T03:05:45;10.47;;;6.63;;
12770;SDS011;6449;47.666;9.160;2023-02-01T03:10:44;8.03;;;6.00;;
12770;SDS011;6449;47.666;9.160;2023-02-01T03:15:51;8.40;;;5.97;;
12770;SDS011;6449;47.666;9.160;2023-02-01T03:20:56;10.43;;;6.70;;
12770;SDS011;6449;47.666;9.160;2023-02-01T03:25:55;9.73;;;6.37;;
12770;SDS011;6449;47.666;9.160;2023-02-01T03:30:53;8.93;;;6.37;;
12770;SDS011;6449;47.666;9.160;2023-02-01T03:35:48;8.67;;;6.43;;
12770;SDS011;6449;47.666;9.160;2023-02-01T03:40:54;9.97;;;6.67;;
12770;SDS011;6449;47.666;9.160;2023-02-01T03:45:59;9.77;;;6.77;;
12770;SDS011;6449;47.666;9.160;2023-02-01T03:51:01;9.80;;;6.80;;
12770;SDS011;6449;47.666;9.160;2023-02-01T04:00:54;8.50;;;7.00;;
12770;SDS011;6449;47.666;9.160;2023-02-01T04:05:50;9.13;;;6.90;;
12770;SDS011;6449;47.666;9.160;2023-02-01T04:10:46;11.20;;;7.10;;
12770;SDS011;6449;47.666;9.160;2023-02-01T04:15:40;11.13;;;7.60;;
12770;SDS011;6449;47.666;9.160;2023-02-01T04:20:34;11.77;;;7.47;;
12770;SDS011;6449;47.666;9.160;2023-02-01T04:25:29;9.07;;;6.70;;
12770;SDS011;6449;47.666;9.160;2023-02-01T04:30:24;9.10;;;7.07;;
12770;SDS011;6449;47.666;9.160;2023-02-01T04:35:17;10.20;;;7.33;;
12770;SDS011;6449;47.666;9.160;2023-02-01T04:40:11;10.87;;;7.17;;
12770;SDS011;6449;47.666;9.160;2023-02-01T04:45:05;10.07;;;6.97;;
12770;SDS011;6449;47.666;9.160;2023-02-01T04:50:01;12.27;;;7.40;;
12770;SDS011;6449;47.666;9.160;2023-02-01T04:54:55;11.87;;;7.37;;
12770;SDS011;6449;47.666;9.160;2023-02-01T04:59:52;10.13;;;7.50;;
12770;SDS011;6449;47.666;9.160;2023-02-01T05:04:45;10.13;;;7.43;;
12770;SDS011;6449;47.666;9.160;2023-02-01T05:09:40;12.23;;;7.73;;
12770;SDS011;6449;47.666;9.160;2023-02-01T05:14:33;8.67;;;7.03;;
12770;SDS011;6449;47.666;9.160;2023-02-01T05:19:27;9.53;;;7.20;;
12770;SDS011;6449;47.666;9.160;2023-02-01T05:24:20;11.73;;;7.47;;
12770;SDS011;6449;47.666;9.160;2023-02-01T05:34:36;11.13;;;7.30;;
12770;SDS011;6449;47.666;9.160;2023-02-01T05:39:29;9.93;;;6.80;;
12770;SDS011;6449;47.666;9.160;2023-02-01T05:44:23;10.27;;;7.30;;
12770;SDS011;6449;47.666;9.160;2023-02-01T05:49:16;8.70;;;6.90;;
12770;SDS011;6449;47.666;9.160;2023-02-01T05:54:11;11.30;;;7.33;;
12770;SDS011;6449;47.666;9.160;2023-02-01T05:59:05;9.87;;;7.40;;
12770;SDS011;6449;47.666;9.160;2023-02-01T06:03:59;8.83;;;6.90;;
12770;SDS011;6449;47.666;9.160;2023-02-01T06:08:52;9.03;;;7.27;;
12770;SDS011;6449;47.666;9.160;2023-02-01T06:13:47;11.60;;;7.40;;
12770;SDS011;6449;47.666;9.160;2023-02-01T06:18:40;9.93;;;7.23;;
12770;SDS011;6449;47.666;9.160;2023-02-01T06:23:34;14.67;;;7.60;;
12770;SDS011;6449;47.666;9.160;2023-02-01T06:28:28;10.43;;;7.20;;
12770;SDS011;6449;47.666;9.160;2023-02-01T06:33:23;9.23;;;7.10;;
12770;SDS011;6449;47.666;9.160;2023-02-01T06:38:17;8.03;;;6.30;;
12770;SDS011;6449;47.666;9.160;2023-02-01T06:48:15;10.73;;;6.50;;
12770;SDS011;6449;47.666;9.160;2023-02-01T06:53:10;9.70;;;6.43;;
12770;SDS011;6449;47.666;9.160;2023-02-01T06:58:03;8.00;;;6.20;;
12770;SDS011;6449;47.666;9.160;2023-02-01T07:02:57;7.90;;;6.43;;
12770;SDS011;6449;47.666;9.160;2023-02-01T07:07:52;9.53;;;6.63;;
12770;SDS011;6449;47.666;9.160;2023-02-01T07:12:47;9.60;;;7.53;;
12770;SDS011;6449;47.666;9.160;2023-02-01T07:17:40;9.20;;;6.90;;
12770;SDS011;6449;47.666;9.160;2023-02-01T07:27:39;10.00;;;7.03;;
12770;SDS011;6449;47.666;9.160;2023-02-01T07:32:33;10.83;;;7.30;;
12770;SDS011;6449;47.666;9.160;2023-02-01T07:37:27;10.13;;;7.43;;
12770;SDS011;6449;47.666;9.160;2023-02-01T07:42:21;9.33;;;7.33;;
12770;SDS011;6449;47.666;9.160;2023-02-01T07:47:14;9.57;;;6.77;;
12770;SDS011;6449;47.666;9.160;2023-02-01T07:52:09;10.17;;;7.80;;
12770;SDS011;6449;47.666;9.160;2023-02-01T07:57:04;10.10;;;7.17;;
12770;SDS011;6449;47.666;9.160;2023-02-01T08:01:59;13.53;;;8.47;;
12770;SDS011;6449;47.666;9.160;2023-02-01T08:06:53;10.73;;;7.43;;
12770;SDS011;6449;47.666;9.160;2023-02-01T08:11:48;10.83;;;7.77;;
12770;SDS011;6449;47.666;9.160;2023-02-01T08:16:41;12.47;;;8.10;;
12770;SDS011;6449;47.666;9.160;2023-02-01T08:21:34;11.03;;;8.30;;
12770;SDS011;6449;47.666;9.160;2023-02-01T08:26:31;12.13;;;9.03;;
12770;SDS011;6449;47.666;9.160;2023-02-01T08:31:26;13.53;;;9.07;;
12770;SDS011;6449;47.666;9.160;2023-02-01T08:36:22;12.40;;;8.97;;
12770;SDS011;6449;47.666;9.160;2023-02-01T08:41:18;14.53;;;9.10;;
12770;SDS011;6449;47.666;9.160;2023-02-01T08:46:14;15.83;;;9.43;;
12770;SDS011;6449;47.666;9.160;2023-02-01T08:51:11;13.53;;;9.43;;
12770;SDS011;6449;47.666;9.160;2023-02-01T08:56:07;11.70;;;8.90;;
12770;SDS011;6449;47.666;9.160;2023-02-01T09:01:13;11.97;;;9.20;;
12770;SDS011;6449;47.666;9.160;2023-02-01T09:06:13;13.83;;;9.20;;
12770;SDS011;6449;47.666;9.160;2023-02-01T09:11:12;13.10;;;8.93;;
12770;SDS011;6449;47.666;9.160;2023-02-01T09:16:10;13.47;;;9.40;;
12770;SDS011;6449;47.666;9.160;2023-02-01T09:21:05;13.43;;;9.30;;
12770;SDS011;6449;47.666;9.160;2023-02-01T09:26:01;13.33;;;9.47;;
12770;SDS011;6449;47.666;9.160;2023-02-01T09:30:56;13.53;;;8.93;;
12770;SDS011;6449;47.666;9.160;2023-02-01T09:35:54;12.93;;;8.73;;
12770;SDS011;6449;47.666;9.160;2023-02-01T09:40:49;12.30;;;8.43;;
12770;SDS011;6449;47.666;9.160;2023-02-01T09:45:46;11.00;;;8.47;;
12770;SDS011;6449;47.666;9.160;2023-02-01T09:50:53;11.03;;;7.77;;
12770;SDS011;6449;47.666;9.160;2023-02-01T09:55:51;11.93;;;8.03;;
12770;SDS011;6449;47.666;9.160;2023-02-01T10:00:51;12.90;;;8.43;;
12770;SDS011;6449;47.666;9.160;2023-02-01T10:06:08;11.80;;;7.97;;
12770;SDS011;6449;47.666;9.160;2023-02-01T10:11:31;10.57;;;7.73;;
12770;SDS011;6449;47.666;9.160;2023-02-01T10:16:44;10.33;;;7.70;;
12770;SDS011;6449;47.666;9.160;2023-02-01T10:21:51;9.30;;;6.50;;
12770;SDS011;6449;47.666;9.160;2023-02-01T10:26:54;9.40;;;6.27;;
12770;SDS011;6449;47.666;9.160;2023-02-01T10:31:56;9.90;;;6.87;;
12770;SDS011;6449;47.666;9.160;2023-02-01T10:36:55;8.97;;;6.93;;
12770;SDS011;6449;47.666;9.160;2023-02-01T10:41:52;9.57;;;6.87;;
12770;SDS011;6449;47.666;9.160;2023-02-01T10:46:48;10.53;;;6.30;;
12770;SDS011;6449;47.666;9.160;2023-02-01T10:51:44;8.33;;;6.33;;
12770;SDS011;6449;47.666;9.160;2023-02-01T10:56:43;7.57;;;5.50;;
12770;SDS011;6449;47.666;9.160;2023-02-01T11:01:39;6.57;;;5.43;;
12770;SDS011;6449;47.666;9.160;2023-02-01T11:06:55;7.43;;;5.17;;
12770;SDS011;6449;47.666;9.160;2023-02-01T11:12:01;8.33;;;5.97;;
12770;SDS011;6449;47.666;9.160;2023-02-01T11:16:55;6.53;;;5.07;;
12770;SDS011;6449;47.666;9.160;2023-02-01T11:21:54;6.10;;;4.63;;
12770;SDS011;6449;47.666;9.160;2023-02-01T11:26:53;7.83;;;5.27;;
12770;SDS011;6449;47.666;9.160;2023-02-01T11:31:50;5.53;;;4.70;;
12770;SDS011;6449;47.666;9.160;2023-02-01T11:36:45;7.03;;;4.70;;
12770;SDS011;6449;47.666;9.160;2023-02-01T11:41:43;7.17;;;4.43;;
12770;SDS011;6449;47.666;9.160;2023-02-01T11:46:49;5.10;;;4.23;;
12770;SDS011;6449;47.666;9.160;2023-02-01T11:51:46;4.73;;;3.73;;
12770;SDS011;6449;47.666;9.160;2023-02-01T11:57:00;8.67;;;4.37;;
12770;SDS011;6449;47.666;9.160;2023-02-01T12:02:18;3.73;;;3.20;;
12770;SDS011;6449;47.666;9.160;2023-02-01T12:07:44;5.00;;;3.77;;
12770;SDS011;6449;47.666;9.160;2023-02-01T12:12:59;6.33;;;3.43;;
12770;SDS011;6449;47.666;9.160;2023-02-01T12:18:17;5.67;;;3.07;;
12770;SDS011;6449;47.666;9.160;2023-02-01T12:23:52;4.70;;;3.40;;
12770;SDS011;6449;47.666;9.160;2023-02-01T12:40:21;5.57;;;3.73;;
12770;SDS011;6449;47.666;9.160;2023-02-01T12:45:33;6.60;;;4.03;;
12770;SDS011;6449;47.666;9.160;2023-02-01T12:50:36;7.23;;;4.00;;
12770;SDS011;6449;47.666;9.160;2023-02-01T12:55:38;6.73;;;4.70;;
12770;SDS011;6449;47.666;9.160;2023-02-01T13:00:43;8.80;;;4.13;;
12770;SDS011;6449;47.666;9.160;2023-02-01T13:05:46;5.60;;;4.17;;
12770;SDS011;6449;47.666;9.160;2023-02-01T13:10:50;6.70;;;4.17;;
12770;SDS011;6449;47.666;9.160;2023-02-01T13:15:55;7.37;;;4.33;;
12770;SDS011;6449;47.666;9.160;2023-02-01T13:21:10;7.47;;;3.97;;
12770;SDS011;6449;47.666;9.160;2023-02-01T13:26:08;7.90;;;3.97;;
12770;SDS011;6449;47.666;9.160;2023-02-01T13:31:14;8.10;;;3.40;;
12770;SDS011;6449;47.666;9.160;2023-02-01T13:36:47;7.07;;;2.87;;
12770;SDS011;6449;47.666;9.160;2023-02-01T13:41:57;6.90;;;2.23;;
12770;SDS011;6449;47.666;9.160;2023-02-01T13:46:57;5.60;;;2.37;;
12770;SDS011;6449;47.666;9.160;2023-02-01T13:51:55;8.07;;;2.13;;
12770;SDS011;6449;47.666;9.160;2023-02-01T13:56:51;4.67;;;2.50;;
12770;SDS011;6449;47.666;9.160;2023-02-01T14:01:46;7.97;;;2.70;;
12770;SDS011;6449;47.666;9.160;2023-02-01T14:06:44;8.27;;;2.70;;
12770;SDS011;6449;47.666;9.160;2023-02-01T14:11:43;4.77;;;2.50;;
12770;SDS011;6449;47.666;9.160;2023-02-01T14:16:39;7.50;;;3.07;;
12770;SDS011;6449;47.666;9.160;2023-02-01T14:21:34;5.80;;;2.30;;
12770;SDS011;6449;47.666;9.160;2023-02-01T14:26:45;8.33;;;2.43;;
12770;SDS011;6449;47.666;9.160;2023-02-01T14:31:43;5.87;;;2.40;;
12770;SDS011;6449;47.666;9.160;2023-02-01T14:36:49;4.20;;;2.10;;
12770;SDS011;6449;47.666;9.160;2023-02-01T14:41:51;8.03;;;2.43;;
12770;SDS011;6449;47.666;9.160;2023-02-01T14:47:03;6.57;;;2.10;;
12770;SDS011;6449;47.666;9.160;2023-02-01T14:52:28;7.47;;;2.73;;
12770;SDS011;6449;47.666;9.160;2023-02-01T14:57:26;8.30;;;2.50;;
12770;SDS011;6449;47.666;9.160;2023-02-01T15:02:23;7.90;;;2.80;;
12770;SDS011;6449;47.666;9.160;2023-02-01T15:07:19;10.40;;;3.07;;
12770;SDS011;6449;47.666;9.160;2023-02-01T15:12:18;6.50;;;2.57;;
12770;SDS011;6449;47.666;9.160;2023-02-01T15:17:19;8.07;;;2.57;;
12770;SDS011;6449;47.666;9.160;2023-02-01T15:22:18;6.53;;;2.50;;
12770;SDS011;6449;47.666;9.160;2023-02-01T15:27:12;10.20;;;2.83;;
12770;SDS011;6449;47.666;9.160;2023-02-01T15:32:15;7.53;;;2.50;;
12770;SDS011;6449;47.666;9.160;2023-02-01T15:37:22;8.40;;;2.53;;
12770;SDS011;6449;47.666;9.160;2023-02-01T15:42:16;10.27;;;2.50;;
12770;SDS011;6449;47.666;9.160;2023-02-01T15:47:14;5.93;;;2.90;;
12770;SDS011;6449;47.666;9.160;2023-02-01T15:52:16;5.10;;;2.60;;
12770;SDS011;6449;47.666;9.160;2023-02-01T15:57:20;8.97;;;2.70;;
12770;SDS011;6449;47.666;9.160;2023-02-01T16:02:27;4.77;;;2.40;;
12770;SDS011;6449;47.666;9.160;2023-02-01T16:07:27;8.90;;;2.93;;
12770;SDS011;6449;47.666;9.160;2023-02-01T16:12:26;2.87;;;2.20;;
12770;SDS011;6449;47.666;9.160;2023-02-01T16:17:27;7.23;;;2.80;;
12770;SDS011;6449;47.666;9.160;2023-02-01T16:22:21;11.97;;;3.00;;
12770;SDS011;6449;47.666;9.160;2023-02-01T16:27:14;9.87;;;2.67;;
12770;SDS011;6449;47.666;9.160;2023-02-01T16:32:10;14.70;;;2.90;;
12770;SDS011;6449;47.666;9.160;2023-02-01T16:37:13;8.73;;;2.67;;
12770;SDS011;6449;47.666;9.160;2023-02-01T16:42:12;10.57;;;2.97;;
12770;SDS011;6449;47.666;9.160;2023-02-01T16:47:10;7.73;;;2.60;;
12770;SDS011;6449;47.666;9.160;2023-02-01T16:52:13;7.57;;;2.30;;
12770;SDS011;6449;47.666;9.160;2023-02-01T16:57:12;5.13;;;2.23;;
12770;SDS011;6449;47.666;9.160;2023-02-01T17:02:09;7.43;;;2.63;;
12770;SDS011;6449;47.666;9.160;2023-02-01T17:07:05;8.63;;;2.70;;
12770;SDS011;6449;47.666;9.160;2023-02-01T17:12:02;8.17;;;2.70;;
12770;SDS011;6449;47.666;9.160;2023-02-01T17:16:56;4.43;;;2.40;;
12770;SDS011;6449;47.666;9.160;2023-02-01T17:21:51;11.57;;;2.33;;
12770;SDS011;6449;47.666;9.160;2023-02-01T17:26:47;9.70;;;2.50;;
12770;SDS011;6449;47.666;9.160;2023-02-01T17:31:43;9.70;;;2.93;;
12770;SDS011;6449;47.666;9.160;2023-02-01T17:36:40;8.03;;;2.63;;
12770;SDS011;6449;47.666;9.160;2023-02-01T17:41:34;8.17;;;2.73;;
12770;SDS011;6449;47.666;9.160;2023-02-01T17:46:29;4.87;;;2.40;;
12770;SDS011;6449;47.666;9.160;2023-02-01T17:51:26;8.27;;;2.53;;
12770;SDS011;6449;47.666;9.160;2023-02-01T17:56:22;6.07;;;2.23;;
12770;SDS011;6449;47.666;9.160;2023-02-01T18:01:19;4.67;;;2.13;;
12770;SDS011;6449;47.666;9.160;2023-02-01T18:06:15;7.57;;;2.47;;
12770;SDS011;6449;47.666;9.160;2023-02-01T18:11:15;10.63;;;3.17;;
12770;SDS011;6449;47.666;9.160;2023-02-01T18:16:14;7.97;;;2.60;;
12770;SDS011;6449;47.666;9.160;2023-02-01T18:21:12;8.07;;;2.80;;
12770;SDS011;6449;47.666;9.160;2023-02-01T18:26:07;5.80;;;2.43;;
12770;SDS011;6449;47.666;9.160;2023-02-01T18:31:05;7.83;;;2.83;;
12770;SDS011;6449;47.666;9.160;2023-02-01T18:35:58;9.70;;;2.37;;
12770;SDS011;6449;47.666;9.160;2023-02-01T18:40:52;8.83;;;2.53;;
12770;SDS011;6449;47.666;9.160;2023-02-01T18:45:48;7.53;;;2.00;;
12770;SDS011;6449;47.666;9.160;2023-02-01T18:50:47;5.50;;;2.27;;
12770;SDS011;6449;47.666;9.160;2023-02-01T18:55:42;4.40;;;2.47;;
12770;SDS011;6449;47.666;9.160;2023-02-01T19:00:35;6.83;;;2.67;;
12770;SDS011;6449;47.666;9.160;2023-02-01T19:05:29;14.13;;;2.80;;
12770;SDS011;6449;47.666;9.160;2023-02-01T19:10:24;8.60;;;2.93;;
12770;SDS011;6449;47.666;9.160;2023-02-01T19:15:18;8.37;;;2.43;;
12770;SDS011;6449;47.666;9.160;2023-02-01T19:20:13;9.40;;;2.67;;
12770;SDS011;6449;47.666;9.160;2023-02-01T19:25:12;8.37;;;2.20;;
12770;SDS011;6449;47.666;9.160;2023-02-01T19:30:24;8.60;;;2.47;;
12770;SDS011;6449;47.666;9.160;2023-02-01T19:35:20;11.90;;;2.83;;
12770;SDS011;6449;47.666;9.160;2023-02-01T19:40:15;9.13;;;2.67;;
12770;SDS011;6449;47.666;9.160;2023-02-01T19:45:11;8.63;;;2.57;;
12770;SDS011;6449;47.666;9.160;2023-02-01T19:50:09;7.17;;;2.50;;
12770;SDS011;6449;47.666;9.160;2023-02-01T19:55:08;11.83;;;2.70;;
12770;SDS011;6449;47.666;9.160;2023-02-01T20:00:02;6.40;;;2.33;;
12770;SDS011;6449;47.666;9.160;2023-02-01T20:04:58;12.17;;;2.67;;
12770;SDS011;6449;47.666;9.160;2023-02-01T20:09:53;7.30;;;2.30;;
12770;SDS011;6449;47.666;9.160;2023-02-01T20:14:46;10.97;;;2.40;;
12770;SDS011;6449;47.666;9.160;2023-02-01T20:19:40;9.47;;;2.40;;
12770;SDS011;6449;47.666;9.160;2023-02-01T20:24:33;5.77;;;2.30;;
12770;SDS011;6449;47.666;9.160;2023-02-01T20:29:28;9.40;;;2.60;;
12770;SDS011;6449;47.666;9.160;2023-02-01T20:34:23;7.57;;;2.57;;
12770;SDS011;6449;47.666;9.160;2023-02-01T20:39:21;8.57;;;2.50;;
12770;SDS011;6449;47.666;9.160;2023-02-01T20:44:14;10.63;;;2.47;;
12770;SDS011;6449;47.666;9.160;2023-02-01T20:49:09;6.53;;;2.37;;
12770;SDS011;6449;47.666;9.160;2023-02-01T20:54:03;7.33;;;2.60;;
12770;SDS011;6449;47.666;9.160;2023-02-01T20:58:56;7.90;;;2.40;;
12770;SDS011;6449;47.666;9.160;2023-02-01T21:03:53;10.77;;;2.87;;
12770;SDS011;6449;47.666;9.160;2023-02-01T21:08:48;6.90;;;2.20;;
12770;SDS011;6449;47.666;9.160;2023-02-01T21:13:42;10.17;;;2.40;;
12770;SDS011;6449;47.666;9.160;2023-02-01T21:18:40;5.63;;;2.57;;
12770;SDS011;6449;47.666;9.160;2023-02-01T21:23:34;10.13;;;2.40;;
12770;SDS011;6449;47.666;9.160;2023-02-01T21:28:39;5.17;;;2.10;;
12770;SDS011;6449;47.666;9.160;2023-02-01T21:33:33;8.37;;;2.40;;
12770;SDS011;6449;47.666;9.160;2023-02-01T21:38:26;5.80;;;2.50;;
12770;SDS011;6449;47.666;9.160;2023-02-01T21:43:20;8.47;;;2.33;;
12770;SDS011;6449;47.666;9.160;2023-02-01T21:48:15;5.57;;;2.10;;
12770;SDS011;6449;47.666;9.160;2023-02-01T21:53:08;7.67;;;2.10;;
12770;SDS011;6449;47.666;9.160;2023-02-01T21:58:02;8.30;;;2.23;;
12770;SDS011;6449;47.666;9.160;2023-02-01T22:03:02;5.37;;;2.03;;
12770;SDS011;6449;47.666;9.160;2023-02-01T22:07:57;6.97;;;2.10;;
12770;SDS011;6449;47.666;9.160;2023-02-01T22:12:50;7.07;;;2.23;;
12770;SDS011;6449;47.666;9.160;2023-02-01T22:17:44;11.00;;;2.50;;
12770;SDS011;6449;47.666;9.160;2023-02-01T22:22:37;7.23;;;2.73;;
12770;SDS011;6449;47.666;9.160;2023-02-01T22:27:32;8.23;;;2.53;;
12770;SDS011;6449;47.666;9.160;2023-02-01T22:32:46;6.07;;;2.07;;
12770;SDS011;6449;47.666;9.160;2023-02-01T22:37:39;7.97;;;2.33;;
12770;SDS011;6449;47.666;9.160;2023-02-01T22:42:36;6.53;;;2.23;;
12770;SDS011;6449;47.666;9.160;2023-02-01T22:47:29;11.23;;;2.60;;
12770;SDS011;6449;47.666;9.160;2023-02-01T22:52:22;8.03;;;2.07;;
12770;SDS011;6449;47.666;9.160;2023-02-01T22:57:16;9.93;;;2.73;;
12770;SDS011;6449;47.666;9.160;2023-02-01T23:02:11;13.80;;;2.87;;
12770;SDS011;6449;47.666;9.160;2023-02-01T23:07:04;8.10;;;2.70;;
12770;SDS011;6449;47.666;9.160;2023-02-01T23:11:57;9.47;;;2.67;;
12770;SDS011;6449;47.666;9.160;2023-02-01T23:16:51;7.50;;;2.50;;
12770;SDS011;6449;47.666;9.160;2023-02-01T23:21:45;9.30;;;2.90;;
12770;SDS011;6449;47.666;9.160;2023-02-01T23:26:39;7.43;;;2.10;;
12770;SDS011;6449;47.666;9.160;2023-02-01T23:31:33;4.80;;;2.30;;
12770;SDS011;6449;47.666;9.160;2023-02-01T23:36:27;5.20;;;2.30;;
12770;SDS011;6449;47.666;9.160;2023-02-01T23:41:25;7.83;;;2.80;;
12770;SDS011;6449;47.666;9.160;2023-02-01T23:46:20;11.50;;;2.60;;
12770;SDS011;6449;47.666;9.160;2023-02-01T23:51:14;7.40;;;2.40;;
12770;SDS011;6449;47.666;9.160;2023-02-01T23:56:14;3.63;;;1.90;;
